createdAt,value
2019-02-18T00:00:23.506Z,21.50
2019-02-18T00:02:52.463Z,23.00
2019-02-18T00:05:21.405Z,23.47
2019-02-18T00:07:50.356Z,23.77
2019-02-18T00:10:19.209Z,24.37
2019-02-18T00:12:48.149Z,26.10
2019-02-18T00:15:17.659Z,23.77
2019-02-18T00:17:46.579Z,22.87
2019-02-18T00:20:15.515Z,25.53
2019-02-18T00:22:54.528Z,24.13
2019-02-18T00:25:23.912Z,27.33
2019-02-18T00:27:52.952Z,25.87
2019-02-18T00:30:22.192Z,27.97
2019-02-18T00:32:51.542Z,25.07
2019-02-18T00:35:20.793Z,24.50
2019-02-18T00:37:49.991Z,26.33
2019-02-18T00:40:19.190Z,25.73
2019-02-18T00:42:48.392Z,25.83
2019-02-18T00:45:17.662Z,22.97
2019-02-18T00:47:48.117Z,25.40
2019-02-18T00:50:17.180Z,25.10
2019-02-18T00:52:46.138Z,25.77
2019-02-18T00:55:15.084Z,24.30
2019-02-18T00:57:43.982Z,28.30
2019-02-18T01:00:17.357Z,26.67
2019-02-18T01:02:46.220Z,24.83
2019-02-18T01:05:15.170Z,23.33
2019-02-18T01:07:44.018Z,23.27
2019-02-18T01:10:13.641Z,25.70
2019-02-18T01:12:43.053Z,24.13
2019-02-18T01:15:14.507Z,26.83
2019-02-18T01:17:43.753Z,24.67
2019-02-18T01:20:14.253Z,24.40
2019-02-18T01:22:43.682Z,25.10
2019-02-18T01:25:15.942Z,25.07
2019-02-18T01:27:44.926Z,24.90
2019-02-18T01:30:16.111Z,26.90
2019-02-18T01:32:45.424Z,26.67
2019-02-18T01:35:14.951Z,26.03
2019-02-18T01:37:46.148Z,27.63
2019-02-18T01:40:15.294Z,28.10
2019-02-18T01:42:44.572Z,29.17
2019-02-18T01:45:14.983Z,31.60
2019-02-18T01:47:44.214Z,29.00
2019-02-18T01:50:14.984Z,28.87
2019-02-18T01:52:44.523Z,25.93
2019-02-18T01:55:14.431Z,27.43
2019-02-18T01:57:55.522Z,28.67
2019-02-18T02:00:24.771Z,27.87
2019-02-18T02:02:54.011Z,28.10
2019-02-18T02:05:23.527Z,28.93
2019-02-18T02:07:56.454Z,29.40
2019-02-18T02:10:23.805Z,26.27
2019-02-18T02:12:54.491Z,29.80
2019-02-18T02:15:28.081Z,27.73
2019-02-18T02:17:57.414Z,33.17
2019-02-18T02:20:26.931Z,31.70
2019-02-18T02:22:56.032Z,30.23
2019-02-18T02:25:25.322Z,33.17
2019-02-18T02:27:54.382Z,30.37
2019-02-18T02:30:24.233Z,28.37
2019-02-18T02:32:53.304Z,30.07
2019-02-18T02:35:22.313Z,32.50
2019-02-18T02:37:51.166Z,30.53
2019-02-18T02:40:20.131Z,29.20
2019-02-18T02:42:49.071Z,28.13
2019-02-18T02:45:23.627Z,29.03
2019-02-18T02:47:52.813Z,32.17
2019-02-18T02:50:21.912Z,31.63
2019-02-18T02:52:51.072Z,28.70
2019-02-18T02:55:20.255Z,29.00
2019-02-18T02:57:49.402Z,31.07
2019-02-18T03:00:18.664Z,30.93
2019-02-18T03:02:47.669Z,28.07
2019-02-18T03:05:16.549Z,29.27
2019-02-18T03:07:45.493Z,30.73
2019-02-18T03:10:14.738Z,29.27
2019-02-18T03:12:43.761Z,28.57
2019-02-18T03:15:15.614Z,31.30
2019-02-18T03:17:45.077Z,31.27
2019-02-18T03:20:14.112Z,31.00
2019-02-18T03:22:43.023Z,27.63
2019-02-18T03:25:17.354Z,29.07
2019-02-18T03:27:46.395Z,29.37
2019-02-18T03:30:33.539Z,29.13
2019-02-18T03:33:02.623Z,27.77
2019-02-18T03:35:31.843Z,30.03
2019-02-18T03:38:01.202Z,29.20
2019-02-18T03:40:30.651Z,30.37
2019-02-18T03:42:59.910Z,29.77
2019-02-18T03:45:29.134Z,27.97
2019-02-18T03:47:58.334Z,28.50
2019-02-18T03:50:27.641Z,26.13
2019-02-18T03:52:56.771Z,28.17
2019-02-18T03:55:26.101Z,28.60
2019-02-18T03:57:55.373Z,24.27
2019-02-18T04:00:24.572Z,26.57
2019-02-18T04:02:54.125Z,25.33
2019-02-18T04:05:23.431Z,27.03
2019-02-18T04:07:52.843Z,26.07
2019-02-18T04:10:22.201Z,22.50
2019-02-18T04:12:51.443Z,23.40
2019-02-18T04:15:21.183Z,24.30
2019-02-18T04:17:50.351Z,23.17
2019-02-18T04:20:24.702Z,24.33
2019-02-18T04:22:53.943Z,24.00
2019-02-18T04:25:22.803Z,25.13
2019-02-18T04:27:51.717Z,22.67
2019-02-18T04:30:20.665Z,26.77
2019-02-18T04:32:49.593Z,24.87
2019-02-18T04:35:18.459Z,25.33
2019-02-18T04:37:47.369Z,26.50
2019-02-18T04:40:16.298Z,26.20
2019-02-18T04:42:45.229Z,25.40
2019-02-18T04:45:14.163Z,26.37
2019-02-18T04:47:43.072Z,25.60
2019-02-18T04:50:12.110Z,24.33
2019-02-18T04:52:41.038Z,24.43
2019-02-18T04:55:11.636Z,27.23
2019-02-18T04:57:40.560Z,25.53
2019-02-18T05:00:10.374Z,26.67
2019-02-18T05:02:39.254Z,24.63
2019-02-18T05:05:09.913Z,26.73
2019-02-18T05:07:38.831Z,25.57
2019-02-18T05:10:10.137Z,26.23
2019-02-18T05:12:39.442Z,28.07
2019-02-18T05:15:09.552Z,28.77
2019-02-18T05:17:38.782Z,25.83
2019-02-18T05:20:08.848Z,27.13
2019-02-18T05:22:37.827Z,25.77
2019-02-18T05:25:12.913Z,27.87
2019-02-18T05:27:41.437Z,26.03
2019-02-18T05:30:13.122Z,25.50
2019-02-18T05:32:42.020Z,25.57
2019-02-18T05:35:10.900Z,28.10
2019-02-18T05:37:39.912Z,28.83
2019-02-18T05:40:09.042Z,28.50
2019-02-18T05:42:37.930Z,27.23
2019-02-18T05:45:08.670Z,29.87
2019-02-18T05:47:37.629Z,29.90
2019-02-18T05:50:08.215Z,31.33
2019-02-18T05:52:37.106Z,30.43
2019-02-18T05:55:07.475Z,31.33
2019-02-18T05:57:36.655Z,30.07
2019-02-18T06:00:09.306Z,31.57
2019-02-18T06:02:38.166Z,32.10
2019-02-18T06:05:07.805Z,33.93
2019-02-18T06:07:36.872Z,33.40
2019-02-18T06:10:08.513Z,33.63
2019-02-18T06:12:37.393Z,34.67
2019-02-18T06:15:09.126Z,32.63
2019-02-18T06:17:38.013Z,34.40
2019-02-18T06:20:09.072Z,34.37
2019-02-18T06:22:38.810Z,35.60
2019-02-18T06:25:07.931Z,34.67
2019-02-18T06:27:36.920Z,32.83
2019-02-18T06:30:08.602Z,36.80
2019-02-18T06:32:37.564Z,37.17
2019-02-18T06:35:07.197Z,36.87
2019-02-18T06:37:36.147Z,36.47
2019-02-18T06:40:07.235Z,38.70
2019-02-18T06:42:36.585Z,40.70
2019-02-18T06:45:27.742Z,38.53
2019-02-18T06:47:58.173Z,36.17
2019-02-18T06:50:27.502Z,36.27
2019-02-18T06:52:56.842Z,37.83
2019-02-18T06:55:26.302Z,41.00
2019-02-18T06:58:13.032Z,39.47
2019-02-18T07:00:58.693Z,40.70
2019-02-18T07:03:45.492Z,39.57
2019-02-18T07:06:28.422Z,41.57
2019-02-18T07:08:59.283Z,39.77
2019-02-18T07:11:36.183Z,40.23
2019-02-18T07:14:05.352Z,41.00
2019-02-18T07:16:34.566Z,40.33
2019-02-18T07:19:03.932Z,39.83
2019-02-18T07:21:33.082Z,47.57
2019-02-18T07:24:02.331Z,51.20
2019-02-18T07:26:31.473Z,46.17
2019-02-18T07:29:00.851Z,42.50
2019-02-18T07:31:30.112Z,36.77
2019-02-18T07:33:59.412Z,36.63
2019-02-18T07:36:28.452Z,37.47
2019-02-18T07:38:57.672Z,42.90
2019-02-18T07:41:26.812Z,46.43
2019-02-18T07:43:55.934Z,46.23
2019-02-18T07:46:25.171Z,43.93
2019-02-18T07:48:54.173Z,50.87
2019-02-18T07:51:23.432Z,54.40
2019-02-18T07:53:52.511Z,54.47
2019-02-18T07:56:21.762Z,55.57
2019-02-18T07:58:50.962Z,55.63
2019-02-18T08:01:20.262Z,53.93
2019-02-18T08:03:49.130Z,55.30
2019-02-18T08:06:18.049Z,48.87
2019-02-18T08:08:46.950Z,48.73
2019-02-18T08:11:15.867Z,45.37
2019-02-18T08:13:54.812Z,47.70
2019-02-18T08:16:24.012Z,50.20
2019-02-18T08:18:53.172Z,55.40
2019-02-18T08:21:22.462Z,47.57
2019-02-18T08:23:59.776Z,52.20
2019-02-18T08:26:22.302Z,57.23
2019-02-18T08:28:51.566Z,47.57
2019-02-18T08:31:20.732Z,47.57
2019-02-18T08:33:49.942Z,42.10
2019-02-18T08:36:18.831Z,38.73
2019-02-18T08:38:47.722Z,37.30
2019-02-18T08:41:16.703Z,36.23
2019-02-18T08:43:45.601Z,36.83
2019-02-18T08:46:14.465Z,37.17
2019-02-18T08:48:43.390Z,35.07
2019-02-18T08:51:12.284Z,33.13
2019-02-18T08:53:41.206Z,34.07
2019-02-18T08:56:10.101Z,34.63
2019-02-18T08:58:39.044Z,30.63
2019-02-18T09:01:20.112Z,36.17
2019-02-18T09:03:49.432Z,35.07
2019-02-18T09:06:18.482Z,37.03
2019-02-18T09:08:47.673Z,34.97
2019-02-18T09:11:16.782Z,36.47
2019-02-18T09:13:45.952Z,34.97
2019-02-18T09:16:15.242Z,37.10
2019-02-18T09:18:44.334Z,37.63
2019-02-18T09:21:13.372Z,37.77
2019-02-18T09:23:44.217Z,40.53
2019-02-18T09:26:14.797Z,39.63
2019-02-18T09:28:44.112Z,39.03
2019-02-18T09:31:13.221Z,42.37
2019-02-18T09:33:42.722Z,41.70
2019-02-18T09:36:11.841Z,40.10
2019-02-18T09:38:41.032Z,39.10
2019-02-18T09:41:09.978Z,41.77
2019-02-18T09:43:39.011Z,41.33
2019-02-18T09:46:07.964Z,40.17
2019-02-18T09:48:36.817Z,41.67
2019-02-18T09:51:06.343Z,38.93
2019-02-18T09:53:35.715Z,39.43
2019-02-18T09:56:05.092Z,41.03
2019-02-18T09:58:34.923Z,40.70
2019-02-18T10:01:04.266Z,41.33
2019-02-18T10:03:33.483Z,42.10
2019-02-18T10:06:02.714Z,41.87
2019-02-18T10:08:31.835Z,40.27
2019-02-18T10:11:01.023Z,41.10
2019-02-18T10:13:30.362Z,41.53
2019-02-18T10:15:59.693Z,42.27
2019-02-18T10:18:28.863Z,41.60
2019-02-18T10:20:57.872Z,41.57
2019-02-18T10:23:27.003Z,40.50
2019-02-18T10:25:56.073Z,41.90
2019-02-18T10:28:25.393Z,42.57
2019-02-18T10:30:54.392Z,39.93
2019-02-18T10:33:23.954Z,40.93
2019-02-18T10:35:59.529Z,40.10
2019-02-18T10:38:28.903Z,39.70
2019-02-18T10:41:06.424Z,39.83
2019-02-18T10:43:32.406Z,40.67
2019-02-18T10:45:59.573Z,38.33
2019-02-18T10:48:29.395Z,37.17
2019-02-18T10:50:58.322Z,38.83
2019-02-18T10:53:27.299Z,36.50
2019-02-18T10:55:56.266Z,38.60
2019-02-18T10:58:25.206Z,35.80
2019-02-18T11:00:54.092Z,34.60
2019-02-18T11:03:23.172Z,35.93
2019-02-18T11:05:52.124Z,39.37
2019-02-18T11:08:20.960Z,37.37
2019-02-18T11:10:49.941Z,37.47
2019-02-18T11:13:18.894Z,36.70
2019-02-18T11:15:47.842Z,34.20
2019-02-18T11:18:16.761Z,35.40
2019-02-18T11:20:45.813Z,36.07
2019-02-18T11:23:20.098Z,37.03
2019-02-18T11:25:49.266Z,37.13
2019-02-18T11:28:18.220Z,37.80
2019-02-18T11:30:47.085Z,36.83
2019-02-18T11:33:16.033Z,36.80
2019-02-18T11:35:44.944Z,36.20
2019-02-18T11:38:13.827Z,40.33
2019-02-18T11:40:42.766Z,40.00
2019-02-18T11:43:11.697Z,37.33
2019-02-18T11:45:40.638Z,35.83
2019-02-18T11:48:09.526Z,34.20
2019-02-18T11:50:38.530Z,35.60
2019-02-18T11:53:07.898Z,33.70
2019-02-18T11:55:38.905Z,32.70
2019-02-18T11:58:07.308Z,31.33
2019-02-18T12:00:36.266Z,29.57
2019-02-18T12:03:11.552Z,28.97
2019-02-18T12:05:35.723Z,27.40
2019-02-18T12:08:05.066Z,26.20
2019-02-18T12:10:43.363Z,25.90
2019-02-18T12:13:12.432Z,24.93
2019-02-18T12:15:41.392Z,26.50
2019-02-18T12:18:10.314Z,24.67
2019-02-18T12:20:39.250Z,25.57
2019-02-18T12:23:08.719Z,25.57
2019-02-18T12:25:37.597Z,24.23
2019-02-18T12:28:06.556Z,26.17
2019-02-18T12:30:35.514Z,28.27
2019-02-18T12:33:04.420Z,27.80
2019-02-18T12:35:34.962Z,27.63
2019-02-18T12:38:03.887Z,29.20
2019-02-18T12:40:32.838Z,29.97
2019-02-18T12:43:01.834Z,29.80
2019-02-18T12:45:30.731Z,30.30
2019-02-18T12:47:59.634Z,30.60
2019-02-18T12:50:28.584Z,30.27
2019-02-18T12:52:57.748Z,30.80
2019-02-18T12:55:26.934Z,30.63
2019-02-18T12:57:59.828Z,31.90
2019-02-18T13:00:29.683Z,31.90
2019-02-18T13:02:58.872Z,32.23
2019-02-18T13:05:28.357Z,31.07
2019-02-18T13:07:57.743Z,31.07
2019-02-18T13:10:34.739Z,32.20
2019-02-18T13:12:57.972Z,32.07
2019-02-18T13:15:27.403Z,32.23
2019-02-18T13:17:56.662Z,31.93
2019-02-18T13:20:26.111Z,31.53
2019-02-18T13:22:55.502Z,29.80
2019-02-18T13:25:24.772Z,30.90
2019-02-18T13:27:54.072Z,31.87
2019-02-18T13:30:23.032Z,31.50
2019-02-18T13:32:51.948Z,31.13
2019-02-18T13:35:20.836Z,31.77
2019-02-18T13:37:49.778Z,29.23
2019-02-18T13:40:18.683Z,29.47
2019-02-18T13:42:48.020Z,31.07
2019-02-18T13:45:35.164Z,30.57
2019-02-18T13:48:04.532Z,29.83
2019-02-18T13:50:34.087Z,28.97
2019-02-18T13:53:03.658Z,29.77
2019-02-18T13:55:33.019Z,30.60
2019-02-18T13:58:02.352Z,30.63
2019-02-18T14:00:32.132Z,31.80
2019-02-18T14:03:01.372Z,32.60
2019-02-18T14:05:30.731Z,30.17
2019-02-18T14:07:59.994Z,32.33
2019-02-18T14:10:28.911Z,30.60
2019-02-18T14:12:57.892Z,30.30
2019-02-18T14:15:26.756Z,29.50
2019-02-18T14:17:55.700Z,32.20
2019-02-18T14:20:24.680Z,35.50
2019-02-18T14:22:54.018Z,33.17
2019-02-18T14:25:22.892Z,33.17
2019-02-18T14:27:51.808Z,34.60
2019-02-18T14:30:20.746Z,35.93
2019-02-18T14:32:50.432Z,36.93
2019-02-18T14:35:19.652Z,36.20
2019-02-18T14:37:49.461Z,32.83
2019-02-18T14:40:21.125Z,33.33
2019-02-18T14:42:52.571Z,34.77
2019-02-18T14:45:21.868Z,34.63
2019-02-18T14:47:51.103Z,33.83
2019-02-18T14:50:19.958Z,35.67
2019-02-18T14:52:50.415Z,36.03
2019-02-18T14:55:19.266Z,32.50
2019-02-18T14:57:48.204Z,34.93
2019-02-18T15:00:22.432Z,35.30
2019-02-18T15:02:52.978Z,37.97
2019-02-18T15:05:22.293Z,37.03
2019-02-18T15:07:51.172Z,36.00
2019-02-18T15:10:20.076Z,34.77
2019-02-18T15:12:48.993Z,37.43
2019-02-18T15:15:17.975Z,34.63
2019-02-18T15:17:46.911Z,35.03
2019-02-18T15:20:16.063Z,33.80
2019-02-18T15:22:45.302Z,31.47
2019-02-18T15:25:14.822Z,32.53
2019-02-18T15:27:44.072Z,33.73
2019-02-18T15:30:16.892Z,32.97
2019-02-18T15:32:46.006Z,33.13
2019-02-18T15:35:15.772Z,32.70
2019-02-18T15:37:44.972Z,33.47
2019-02-18T15:40:15.892Z,33.60
2019-02-18T15:42:44.962Z,30.30
2019-02-18T15:45:14.462Z,34.40
2019-02-18T15:47:43.782Z,32.27
2019-02-18T15:50:14.254Z,31.97
2019-02-18T15:52:43.602Z,32.07
2019-02-18T15:55:12.801Z,33.50
2019-02-18T15:57:41.982Z,32.60
2019-02-18T16:00:14.232Z,32.37
2019-02-18T16:02:43.562Z,30.90
2019-02-18T16:05:12.794Z,31.63
2019-02-18T16:07:42.184Z,31.40
2019-02-18T16:10:11.482Z,29.47
2019-02-18T16:12:41.002Z,29.37
2019-02-18T16:15:11.712Z,29.90
2019-02-18T16:17:41.331Z,31.83
2019-02-18T16:20:15.161Z,30.50
2019-02-18T16:22:44.642Z,30.57
2019-02-18T16:25:19.543Z,30.43
2019-02-18T16:27:48.832Z,30.87
2019-02-18T16:30:18.141Z,30.00
2019-02-18T16:32:47.652Z,31.50
2019-02-18T16:35:17.012Z,29.73
2019-02-18T16:37:46.271Z,30.13
2019-02-18T16:40:19.153Z,30.87
2019-02-18T16:42:48.060Z,32.23
2019-02-18T16:45:17.003Z,30.80
2019-02-18T16:47:45.879Z,29.47
2019-02-18T16:50:14.828Z,32.27
2019-02-18T16:52:49.714Z,32.67
2019-02-18T16:55:18.887Z,32.63
2019-02-18T16:57:47.742Z,35.33
2019-02-18T17:00:22.323Z,34.37
2019-02-18T17:02:51.209Z,33.23
2019-02-18T17:05:20.088Z,36.13
2019-02-18T17:07:49.026Z,33.57
2019-02-18T17:10:17.890Z,35.13
2019-02-18T17:12:47.251Z,34.77
2019-02-18T17:15:16.105Z,34.73
2019-02-18T17:17:45.042Z,34.03
2019-02-18T17:20:14.015Z,35.77
2019-02-18T17:22:43.006Z,34.60
2019-02-18T17:25:13.017Z,35.97
2019-02-18T17:27:41.996Z,36.90
2019-02-18T17:30:13.593Z,32.77
2019-02-18T17:32:42.814Z,37.40
2019-02-18T17:35:15.147Z,37.80
2019-02-18T17:37:44.173Z,35.70
2019-02-18T17:40:20.082Z,33.73
2019-02-18T17:42:49.572Z,36.70
2019-02-18T17:45:19.082Z,38.17
2019-02-18T17:47:48.692Z,37.63
2019-02-18T17:50:18.562Z,37.37
2019-02-18T17:52:48.052Z,36.10
2019-02-18T17:55:18.702Z,35.00
2019-02-18T17:57:48.336Z,36.63
2019-02-18T18:00:21.567Z,33.17
2019-02-18T18:02:50.936Z,36.30
2019-02-18T18:05:20.306Z,33.47
2019-02-18T18:07:49.781Z,32.37
2019-02-18T18:10:19.451Z,33.90
2019-02-18T18:12:48.942Z,34.83
2019-02-18T18:15:20.481Z,34.60
2019-02-18T18:17:50.014Z,31.63
2019-02-18T18:20:20.632Z,33.43
2019-02-18T18:22:50.018Z,32.53
2019-02-18T18:25:19.431Z,32.10
2019-02-18T18:27:48.952Z,31.60
2019-02-18T18:30:19.080Z,29.43
2019-02-18T18:32:47.937Z,31.10
2019-02-18T18:35:17.007Z,31.27
2019-02-18T18:37:45.914Z,30.60
2019-02-18T18:40:17.121Z,32.00
2019-02-18T18:42:46.090Z,31.97
2019-02-18T18:45:15.874Z,30.23
2019-02-18T18:47:45.115Z,30.23
2019-02-18T18:50:16.766Z,29.40
2019-02-18T18:52:46.186Z,28.10
2019-02-18T18:55:15.350Z,27.93
2019-02-18T18:57:44.538Z,27.57
2019-02-18T19:00:17.432Z,29.00
2019-02-18T19:02:46.548Z,27.40
2019-02-18T19:05:15.661Z,27.93
2019-02-18T19:07:44.715Z,27.27
2019-02-18T19:10:14.059Z,26.77
2019-02-18T19:12:43.154Z,25.43
2019-02-18T19:15:19.004Z,25.10
2019-02-18T19:17:48.364Z,25.50
2019-02-18T19:20:18.003Z,23.73
2019-02-18T19:22:47.282Z,22.77
2019-02-18T19:25:16.825Z,22.67
2019-02-18T19:27:46.302Z,26.07
2019-02-18T19:30:18.422Z,22.47
2019-02-18T19:32:48.002Z,24.50
2019-02-18T19:35:17.421Z,23.63
2019-02-18T19:37:47.013Z,22.87
2019-02-18T19:40:16.401Z,24.57
2019-02-18T19:42:45.792Z,23.63
2019-02-18T19:45:23.986Z,21.47
2019-02-18T19:47:53.412Z,20.37
2019-02-18T19:50:22.824Z,20.87
2019-02-18T19:52:52.422Z,22.00
2019-02-18T19:55:21.862Z,19.53
2019-02-18T19:57:51.423Z,20.40
2019-02-18T20:00:21.603Z,18.13
2019-02-18T20:02:56.382Z,19.57
2019-02-18T20:05:25.334Z,19.23
2019-02-18T20:07:54.279Z,20.37
2019-02-18T20:10:24.626Z,19.03
2019-02-18T20:12:53.864Z,18.77
2019-02-18T20:15:22.832Z,18.97
2019-02-18T20:17:51.698Z,19.27
2019-02-18T20:20:20.693Z,18.57
2019-02-18T20:22:49.678Z,20.00
2019-02-18T20:25:18.694Z,18.40
2019-02-18T20:27:47.922Z,18.27
2019-02-18T20:30:17.855Z,18.67
2019-02-18T20:32:46.837Z,18.90
2019-02-18T20:35:15.960Z,17.50
2019-02-18T20:37:44.858Z,16.40
2019-02-18T20:40:14.144Z,17.17
2019-02-18T20:42:43.398Z,19.20
2019-02-18T20:45:13.028Z,19.20
2019-02-18T20:47:42.037Z,17.27
2019-02-18T20:50:13.083Z,17.00
2019-02-18T20:52:42.502Z,16.47
2019-02-18T20:55:13.423Z,15.90
2019-02-18T20:57:43.141Z,16.30
2019-02-18T21:00:18.192Z,15.77
2019-02-18T21:02:47.572Z,15.20
2019-02-18T21:05:16.567Z,15.17
2019-02-18T21:07:45.677Z,13.90
2019-02-18T21:10:17.371Z,14.40
2019-02-18T21:12:46.388Z,15.43
2019-02-18T21:15:16.107Z,14.73
2019-02-18T21:17:45.137Z,14.50
2019-02-18T21:20:14.963Z,17.37
2019-02-18T21:22:43.907Z,15.40
2019-02-18T21:25:13.170Z,15.10
2019-02-18T21:27:42.096Z,16.30
2019-02-18T21:30:13.927Z,16.33
2019-02-18T21:32:42.815Z,16.30
2019-02-18T21:35:11.997Z,15.83
2019-02-18T21:37:41.732Z,15.53
2019-02-18T21:40:12.342Z,15.17
2019-02-18T21:42:41.671Z,16.03
2019-02-18T21:45:15.598Z,15.93
2019-02-18T21:47:44.662Z,15.90
2019-02-18T21:50:14.173Z,15.70
2019-02-18T21:52:43.631Z,15.93
2019-02-18T21:55:12.989Z,15.80
2019-02-18T21:57:41.990Z,16.07
2019-02-18T22:00:18.325Z,14.53
2019-02-18T22:02:47.421Z,15.93
2019-02-18T22:05:16.715Z,15.77
2019-02-18T22:07:45.686Z,17.27
2019-02-18T22:10:14.823Z,15.37
2019-02-18T22:12:43.691Z,15.23
2019-02-18T22:15:14.755Z,15.63
2019-02-18T22:17:43.647Z,16.37
2019-02-18T22:20:13.934Z,16.47
2019-02-18T22:22:46.979Z,15.00
2019-02-18T22:25:17.032Z,14.77
2019-02-18T22:27:46.322Z,14.77
2019-02-18T22:30:17.012Z,16.73
2019-02-18T22:32:46.381Z,15.20
2019-02-18T22:35:16.004Z,15.53
2019-02-18T22:37:45.142Z,15.10
2019-02-18T22:40:14.627Z,15.40
2019-02-18T22:42:43.811Z,15.07
2019-02-18T22:45:13.764Z,15.33
2019-02-18T22:47:42.741Z,14.67
2019-02-18T22:50:12.264Z,14.73
2019-02-18T22:52:41.147Z,15.00
2019-02-18T22:55:10.876Z,15.17
2019-02-18T22:57:39.776Z,16.23
2019-02-18T23:00:11.599Z,16.07
2019-02-18T23:02:43.446Z,12.97
2019-02-18T23:05:12.832Z,14.53
2019-02-18T23:07:41.765Z,14.87
2019-02-18T23:10:10.630Z,14.60
2019-02-18T23:12:39.792Z,15.33
2019-02-18T23:15:09.262Z,15.37
2019-02-18T23:17:38.172Z,19.23
2019-02-18T23:20:07.137Z,15.33
2019-02-18T23:22:36.375Z,15.80
2019-02-18T23:25:05.229Z,16.17
2019-02-18T23:27:34.111Z,15.70
2019-02-18T23:30:03.099Z,16.70
2019-02-18T23:32:32.039Z,16.77
2019-02-18T23:35:00.894Z,17.73
2019-02-18T23:37:30.162Z,15.63
2019-02-18T23:39:59.110Z,15.53
2019-02-18T23:42:28.056Z,16.73
2019-02-18T23:44:59.273Z,17.43
2019-02-18T23:47:27.792Z,19.47
2019-02-18T23:49:56.739Z,16.97
2019-02-18T23:52:25.666Z,16.67
2019-02-18T23:54:54.565Z,17.03
2019-02-18T23:57:36.436Z,15.47
